METAR Data

Data at: 2043 UTC 19 Jan 2019

METAR for:KSAN (San Diego Intl Arpt, CA, US)
Text:KSAN 191951Z 31006KT 10SM FEW250 21/09 A3023 RMK AO2 SLP237 T02110094
Temperature: 21.1°C ( 70°F)
Dewpoint: 9.4°C ( 49°F) [RH = 47%]
Pressure (altimeter):30.23 inches Hg (1023.8 mb) [Sea level pressure: 1023.7 mb]
Winds:from the NW (310 degrees) at 7 MPH (6 knots; 3.1 m/s)
Visibility:10 or more sm (16+ km)
Ceiling:at least 12,000 feet AGL
Clouds: few clouds at 25000 feet AGL